Puerto Escondido International Airport
MMPS : rendu visible

Aérodrome :











RETROUVEZ-NOUS SUR...

 
LOGIN :

S'inscrire | Disclaimer

   EN    FR    IT 

 









Légende :    VFR   VFR Marginal   IFR   IFR Intensif   IFR Très Intensif
Visi : 
Plafond : 
>= 8 km
>= 3000ft
5 à 8 km
1000 à 3000 ft
1500m à 5 km
500 à 1000 ft
800 à 1500m
200 à 500 ft
< 800m
< 200 ft
Symboles :   Orages  Brouillard  Fortes neiges  Fortes précipitations  Vent > 20 kt






- Altitude de l'aérodrome : 294 ft
- Code IATA : PXM


MMPS - Puerto Escondido International

DERNIER METAR :
  • 121753Z 00000KT 13SM FEW015 29/23 A2995 RMK 8/100

METARs EXPIRÉS :
  • 121653Z 00000KT 13SM SKC 28/23 A2997
  • 121544Z 00000KT 12SM SKC 28/22 A2997

TAF TAF MMPS
Valide du 12 à 18h jusqu'au 13 à 18h UTC


121618Z 1218/1318 20010KT P6SM SKC
FM122200 22010KT P6SM SCT030 SCT230
BECMG 1302/1303 00000KT
FM131500 02010KT P6SM SCT020



MET'MAP, la Météo Aéronautique d'un coup d'oeil ! - Copyright ORBIFLY Décembre 2007 - Disclaimer

ORBIFLY MET'MAP TEAM :

Programmation & Développement : Alexandra Zaïnal
Sur une idée originale de : Baudouin d'Aumeries
Assistance à la programmation : Marc-Olivier Méhu
Soutien technique & logistique : Manuel Goepfert

Contact : metmap@orbifly.com




SOURCES & CREDITS :

   NOAA       Earth
Advisory